Terminal Aerodrome Forecast
Issued by NWS Duluth, MN

Home | Current Version | Previous Version | Text Only | Print | Product List | Glossary On
Versions: 1 2 3 4 5 6 7 8 9 10 11 12 13 14 15 16 17 18 19
000
FTUS43 KDLH 020532
TAFINL
TAF
KINL 020532Z 0206/0306 23004KT P6SM VCTS SCT040CB BKN100
      TEMPO 0206/0210 VRB30KT 5SM TSRA SCT025 BKN035CB OVC060
     FM021200 33008KT P6SM VCSH SCT030 BKN040
     FM021600 33014G22KT P6SM SCT050
     FM030100 31009KT P6SM SCT060 SCT120=

USA.gov is the U.S. government's official web portal to all federal, state and local government web resources and services.